sensor_id;sensor_type;location;lat;lon;timestamp;temperature;humidity
70154;DHT22;57519;51.494;-2.626;2022-10-16T00:00:34;11.43;80.83
70154;DHT22;57519;51.494;-2.626;2022-10-16T00:03:01;11.45;81.05
70154;DHT22;57519;51.494;-2.626;2022-10-16T00:05:26;11.36;81.28
70154;DHT22;57519;51.494;-2.626;2022-10-16T00:07:52;11.32;81.45
70154;DHT22;57519;51.494;-2.626;2022-10-16T00:10:17;11.34;81.60
70154;DHT22;57519;51.494;-2.626;2022-10-16T00:12:42;11.34;81.12
70154;DHT22;57519;51.494;-2.626;2022-10-16T00:15:08;11.36;81.05
70154;DHT22;57519;51.494;-2.626;2022-10-16T00:17:34;11.38;81.12
70154;DHT22;57519;51.494;-2.626;2022-10-16T00:19:59;11.36;80.64
70154;DHT22;57519;51.494;-2.626;2022-10-16T00:22:25;11.34;81.24
70154;DHT22;57519;51.494;-2.626;2022-10-16T00:24:51;11.28;81.17
70154;DHT22;57519;51.494;-2.626;2022-10-16T00:27:16;11.34;81.22
70154;DHT22;57519;51.494;-2.626;2022-10-16T00:29:42;11.40;80.71
70154;DHT22;57519;51.494;-2.626;2022-10-16T00:32:08;11.39;80.81
70154;DHT22;57519;51.494;-2.626;2022-10-16T00:34:33;11.38;80.43
70154;DHT22;57519;51.494;-2.626;2022-10-16T00:36:59;11.43;80.67
70154;DHT22;57519;51.494;-2.626;2022-10-16T00:39:24;11.39;80.86
70154;DHT22;57519;51.494;-2.626;2022-10-16T00:41:50;11.35;80.65
70154;DHT22;57519;51.494;-2.626;2022-10-16T00:47:09;11.43;79.63
70154;DHT22;57519;51.494;-2.626;2022-10-16T00:49:35;11.49;79.14
70154;DHT22;57519;51.494;-2.626;2022-10-16T00:52:00;11.54;78.77
70154;DHT22;57519;51.494;-2.626;2022-10-16T00:54:28;11.52;78.67
70154;DHT22;57519;51.494;-2.626;2022-10-16T00:56:55;11.51;78.26
70154;DHT22;57519;51.494;-2.626;2022-10-16T00:59:51;11.52;78.05
70154;DHT22;57519;51.494;-2.626;2022-10-16T01:02:17;11.46;78.14
70154;DHT22;57519;51.494;-2.626;2022-10-16T01:04:48;11.35;78.85
70154;DHT22;57519;51.494;-2.626;2022-10-16T01:13:07;11.38;78.33
70154;DHT22;57519;51.494;-2.626;2022-10-16T01:15:48;11.32;78.05
70154;DHT22;57519;51.494;-2.626;2022-10-16T01:18:33;11.35;78.07
70154;DHT22;57519;51.494;-2.626;2022-10-16T01:21:04;11.34;78.53
70154;DHT22;57519;51.494;-2.626;2022-10-16T01:23:54;11.27;78.46
70154;DHT22;57519;51.494;-2.626;2022-10-16T01:29:12;11.25;78.08
70154;DHT22;57519;51.494;-2.626;2022-10-16T01:31:42;11.21;78.41
70154;DHT22;57519;51.494;-2.626;2022-10-16T01:34:19;11.19;78.07
70154;DHT22;57519;51.494;-2.626;2022-10-16T01:36:56;11.25;78.44
70154;DHT22;57519;51.494;-2.626;2022-10-16T01:39:25;11.27;78.24
70154;DHT22;57519;51.494;-2.626;2022-10-16T01:42:17;11.25;78.54
70154;DHT22;57519;51.494;-2.626;2022-10-16T01:44:45;11.21;78.78
70154;DHT22;57519;51.494;-2.626;2022-10-16T01:47:11;11.19;78.90
70154;DHT22;57519;51.494;-2.626;2022-10-16T01:49:39;11.25;78.59
70154;DHT22;57519;51.494;-2.626;2022-10-16T01:52:11;11.27;78.52
70154;DHT22;57519;51.494;-2.626;2022-10-16T01:54:41;11.15;79.12
70154;DHT22;57519;51.494;-2.626;2022-10-16T01:57:08;11.22;78.11
70154;DHT22;57519;51.494;-2.626;2022-10-16T01:59:44;11.21;78.55
70154;DHT22;57519;51.494;-2.626;2022-10-16T02:02:10;11.18;78.72
70154;DHT22;57519;51.494;-2.626;2022-10-16T02:04:45;11.25;78.36
70154;DHT22;57519;51.494;-2.626;2022-10-16T02:07:11;11.31;77.58
70154;DHT22;57519;51.494;-2.626;2022-10-16T02:09:37;11.31;77.84
70154;DHT22;57519;51.494;-2.626;2022-10-16T02:12:10;11.21;78.28
70154;DHT22;57519;51.494;-2.626;2022-10-16T02:14:38;11.19;77.95
70154;DHT22;57519;51.494;-2.626;2022-10-16T02:17:15;11.15;78.62
70154;DHT22;57519;51.494;-2.626;2022-10-16T02:19:41;11.19;78.34
70154;DHT22;57519;51.494;-2.626;2022-10-16T02:22:10;11.17;78.62
70154;DHT22;57519;51.494;-2.626;2022-10-16T02:25:03;11.17;78.58
70154;DHT22;57519;51.494;-2.626;2022-10-16T02:27:38;11.06;79.06
70154;DHT22;57519;51.494;-2.626;2022-10-16T02:30:15;11.08;79.08
70154;DHT22;57519;51.494;-2.626;2022-10-16T02:32:45;11.00;79.18
70154;DHT22;57519;51.494;-2.626;2022-10-16T02:35:12;11.00;78.99
70154;DHT22;57519;51.494;-2.626;2022-10-16T02:37:39;10.91;79.30
70154;DHT22;57519;51.494;-2.626;2022-10-16T02:40:06;10.87;79.63
70154;DHT22;57519;51.494;-2.626;2022-10-16T02:42:37;10.87;79.50
70154;DHT22;57519;51.494;-2.626;2022-10-16T02:45:05;10.91;79.69
70154;DHT22;57519;51.494;-2.626;2022-10-16T02:47:31;10.90;79.92
70154;DHT22;57519;51.494;-2.626;2022-10-16T02:49:56;10.94;79.68
70154;DHT22;57519;51.494;-2.626;2022-10-16T02:54:47;10.90;79.80
70154;DHT22;57519;51.494;-2.626;2022-10-16T02:57:13;10.90;80.08
70154;DHT22;57519;51.494;-2.626;2022-10-16T02:59:38;10.89;80.26
70154;DHT22;57519;51.494;-2.626;2022-10-16T03:02:04;10.96;79.86
70154;DHT22;57519;51.494;-2.626;2022-10-16T03:04:29;11.01;79.62
70154;DHT22;57519;51.494;-2.626;2022-10-16T03:06:54;11.08;79.77
70154;DHT22;57519;51.494;-2.626;2022-10-16T03:09:20;11.14;79.42
70154;DHT22;57519;51.494;-2.626;2022-10-16T03:11:45;11.28;78.97
70154;DHT22;57519;51.494;-2.626;2022-10-16T03:14:11;11.39;78.52
70154;DHT22;57519;51.494;-2.626;2022-10-16T03:16:36;11.40;78.37
70154;DHT22;57519;51.494;-2.626;2022-10-16T03:19:01;11.43;78.92
70154;DHT22;57519;51.494;-2.626;2022-10-16T03:21:27;11.36;80.81
70154;DHT22;57519;51.494;-2.626;2022-10-16T03:23:52;11.29;81.59
70154;DHT22;57519;51.494;-2.626;2022-10-16T03:26:18;11.21;83.09
70154;DHT22;57519;51.494;-2.626;2022-10-16T03:28:46;11.06;84.55
70154;DHT22;57519;51.494;-2.626;2022-10-16T03:31:12;10.93;85.24
70154;DHT22;57519;51.494;-2.626;2022-10-16T03:33:37;10.87;84.88
70154;DHT22;57519;51.494;-2.626;2022-10-16T03:36:03;10.79;85.97
70154;DHT22;57519;51.494;-2.626;2022-10-16T03:38:28;10.69;86.62
70154;DHT22;57519;51.494;-2.626;2022-10-16T03:40:53;10.63;86.98
70154;DHT22;57519;51.494;-2.626;2022-10-16T03:43:19;10.63;87.27
70154;DHT22;57519;51.494;-2.626;2022-10-16T03:45:44;10.57;88.04
70154;DHT22;57519;51.494;-2.626;2022-10-16T03:48:10;10.55;87.95
70154;DHT22;57519;51.494;-2.626;2022-10-16T03:50:35;10.45;88.25
70154;DHT22;57519;51.494;-2.626;2022-10-16T03:53:01;10.35;88.38
70154;DHT22;57519;51.494;-2.626;2022-10-16T03:55:26;10.35;88.76
70154;DHT22;57519;51.494;-2.626;2022-10-16T03:57:52;10.26;88.85
70154;DHT22;57519;51.494;-2.626;2022-10-16T04:00:17;10.21;89.04
70154;DHT22;57519;51.494;-2.626;2022-10-16T04:02:43;10.16;88.94
70154;DHT22;57519;51.494;-2.626;2022-10-16T04:05:08;10.11;88.97
70154;DHT22;57519;51.494;-2.626;2022-10-16T04:07:34;10.02;89.34
70154;DHT22;57519;51.494;-2.626;2022-10-16T04:09:59;9.99;89.20
70154;DHT22;57519;51.494;-2.626;2022-10-16T04:12:26;9.93;89.58
70154;DHT22;57519;51.494;-2.626;2022-10-16T04:14:51;9.90;89.74
70154;DHT22;57519;51.494;-2.626;2022-10-16T04:17:17;9.84;90.10
70154;DHT22;57519;51.494;-2.626;2022-10-16T04:19:42;9.76;90.29
70154;DHT22;57519;51.494;-2.626;2022-10-16T04:22:08;9.74;90.56
70154;DHT22;57519;51.494;-2.626;2022-10-16T04:24:33;9.74;90.26
70154;DHT22;57519;51.494;-2.626;2022-10-16T04:29:24;9.74;90.58
70154;DHT22;57519;51.494;-2.626;2022-10-16T04:31:50;9.77;91.21
70154;DHT22;57519;51.494;-2.626;2022-10-16T04:34:15;9.87;91.29
70154;DHT22;57519;51.494;-2.626;2022-10-16T04:36:40;9.90;91.11
70154;DHT22;57519;51.494;-2.626;2022-10-16T04:39:06;9.98;91.22
70154;DHT22;57519;51.494;-2.626;2022-10-16T04:41:31;9.99;90.74
70154;DHT22;57519;51.494;-2.626;2022-10-16T04:43:57;10.05;91.22
70154;DHT22;57519;51.494;-2.626;2022-10-16T04:46:22;10.04;91.21
70154;DHT22;57519;51.494;-2.626;2022-10-16T04:48:47;10.08;91.10
70154;DHT22;57519;51.494;-2.626;2022-10-16T04:51:13;10.09;91.52
70154;DHT22;57519;51.494;-2.626;2022-10-16T04:53:38;10.12;91.96
70154;DHT22;57519;51.494;-2.626;2022-10-16T04:56:04;10.14;91.94
70154;DHT22;57519;51.494;-2.626;2022-10-16T04:58:29;10.06;91.91
70154;DHT22;57519;51.494;-2.626;2022-10-16T05:00:55;9.97;91.40
70154;DHT22;57519;51.494;-2.626;2022-10-16T05:03:20;9.90;91.63
70154;DHT22;57519;51.494;-2.626;2022-10-16T05:05:46;9.81;91.71
70154;DHT22;57519;51.494;-2.626;2022-10-16T05:08:15;9.71;91.86
70154;DHT22;57519;51.494;-2.626;2022-10-16T05:10:43;9.60;92.04
70154;DHT22;57519;51.494;-2.626;2022-10-16T05:13:09;9.48;92.21
70154;DHT22;57519;51.494;-2.626;2022-10-16T05:15:35;9.44;92.41
70154;DHT22;57519;51.494;-2.626;2022-10-16T05:18:01;9.36;92.66
70154;DHT22;57519;51.494;-2.626;2022-10-16T05:20:26;9.26;92.73
70154;DHT22;57519;51.494;-2.626;2022-10-16T05:22:52;9.32;93.17
70154;DHT22;57519;51.494;-2.626;2022-10-16T05:25:17;9.30;93.23
70154;DHT22;57519;51.494;-2.626;2022-10-16T05:27:43;9.20;93.33
70154;DHT22;57519;51.494;-2.626;2022-10-16T05:30:09;9.15;93.23
70154;DHT22;57519;51.494;-2.626;2022-10-16T05:32:34;9.14;93.32
70154;DHT22;57519;51.494;-2.626;2022-10-16T05:34:59;9.14;93.47
70154;DHT22;57519;51.494;-2.626;2022-10-16T05:37:27;9.08;93.56
70154;DHT22;57519;51.494;-2.626;2022-10-16T05:39:52;9.07;93.54
70154;DHT22;57519;51.494;-2.626;2022-10-16T05:42:18;9.01;93.45
70154;DHT22;57519;51.494;-2.626;2022-10-16T05:44:44;8.99;93.67
70154;DHT22;57519;51.494;-2.626;2022-10-16T05:47:09;9.05;93.95
70154;DHT22;57519;51.494;-2.626;2022-10-16T05:49:36;9.09;94.26
70154;DHT22;57519;51.494;-2.626;2022-10-16T05:52:01;9.09;94.22
70154;DHT22;57519;51.494;-2.626;2022-10-16T05:54:27;9.09;94.22
70154;DHT22;57519;51.494;-2.626;2022-10-16T05:56:52;8.98;94.04
70154;DHT22;57519;51.494;-2.626;2022-10-16T05:59:18;8.81;93.70
70154;DHT22;57519;51.494;-2.626;2022-10-16T06:01:43;8.77;93.74
70154;DHT22;57519;51.494;-2.626;2022-10-16T06:04:09;8.70;93.99
70154;DHT22;57519;51.494;-2.626;2022-10-16T06:06:35;8.67;94.27
70154;DHT22;57519;51.494;-2.626;2022-10-16T06:09:02;8.71;94.43
70154;DHT22;57519;51.494;-2.626;2022-10-16T06:11:29;8.80;94.62
70154;DHT22;57519;51.494;-2.626;2022-10-16T06:13:57;8.77;94.69
70154;DHT22;57519;51.494;-2.626;2022-10-16T06:16:24;8.70;94.56
70154;DHT22;57519;51.494;-2.626;2022-10-16T06:18:51;8.60;94.29
70154;DHT22;57519;51.494;-2.626;2022-10-16T06:21:19;8.54;94.16
70154;DHT22;57519;51.494;-2.626;2022-10-16T06:23:45;8.49;94.07
70154;DHT22;57519;51.494;-2.626;2022-10-16T06:26:15;8.40;94.01
70154;DHT22;57519;51.494;-2.626;2022-10-16T06:28:41;8.32;93.97
70154;DHT22;57519;51.494;-2.626;2022-10-16T06:31:09;8.29;94.08
70154;DHT22;57519;51.494;-2.626;2022-10-16T06:33:35;8.29;94.35
70154;DHT22;57519;51.494;-2.626;2022-10-16T06:36:06;8.32;94.60
70154;DHT22;57519;51.494;-2.626;2022-10-16T06:38:32;8.29;94.67
70154;DHT22;57519;51.494;-2.626;2022-10-16T06:40:58;8.32;94.75
70154;DHT22;57519;51.494;-2.626;2022-10-16T06:43:23;8.21;94.42
70154;DHT22;57519;51.494;-2.626;2022-10-16T06:45:53;8.13;94.16
70154;DHT22;57519;51.494;-2.626;2022-10-16T06:48:19;8.09;94.10
70154;DHT22;57519;51.494;-2.626;2022-10-16T06:53:27;8.10;94.13
70154;DHT22;57519;51.494;-2.626;2022-10-16T06:55:53;8.03;94.02
70154;DHT22;57519;51.494;-2.626;2022-10-16T06:58:19;7.96;93.78
70154;DHT22;57519;51.494;-2.626;2022-10-16T07:00:44;7.94;93.79
70154;DHT22;57519;51.494;-2.626;2022-10-16T07:03:10;7.94;94.21
70154;DHT22;57519;51.494;-2.626;2022-10-16T07:05:42;8.03;94.47
70154;DHT22;57519;51.494;-2.626;2022-10-16T07:08:08;8.09;94.55
70154;DHT22;57519;51.494;-2.626;2022-10-16T07:10:34;8.07;94.38
70154;DHT22;57519;51.494;-2.626;2022-10-16T07:13:01;8.12;94.38
70154;DHT22;57519;51.494;-2.626;2022-10-16T07:15:26;8.16;94.37
70154;DHT22;57519;51.494;-2.626;2022-10-16T07:17:52;8.14;94.25
70154;DHT22;57519;51.494;-2.626;2022-10-16T07:20:17;8.17;94.12
70154;DHT22;57519;51.494;-2.626;2022-10-16T07:22:43;8.21;93.98
70154;DHT22;57519;51.494;-2.626;2022-10-16T07:25:09;8.17;93.92
70154;DHT22;57519;51.494;-2.626;2022-10-16T07:27:34;8.22;93.94
70154;DHT22;57519;51.494;-2.626;2022-10-16T07:30:00;8.30;94.19
70154;DHT22;57519;51.494;-2.626;2022-10-16T07:32:25;8.33;94.26
70154;DHT22;57519;51.494;-2.626;2022-10-16T07:34:52;8.43;94.50
70154;DHT22;57519;51.494;-2.626;2022-10-16T07:37:17;8.47;94.60
70154;DHT22;57519;51.494;-2.626;2022-10-16T07:39:42;8.49;94.44
70154;DHT22;57519;51.494;-2.626;2022-10-16T07:42:08;8.50;94.39
70154;DHT22;57519;51.494;-2.626;2022-10-16T07:44:33;8.53;94.35
70154;DHT22;57519;51.494;-2.626;2022-10-16T07:46:59;8.59;94.34
70154;DHT22;57519;51.494;-2.626;2022-10-16T07:49:24;8.63;94.28
70154;DHT22;57519;51.494;-2.626;2022-10-16T07:51:49;8.70;94.34
70154;DHT22;57519;51.494;-2.626;2022-10-16T07:54:15;8.78;94.40
70154;DHT22;57519;51.494;-2.626;2022-10-16T07:56:41;8.82;94.34
70154;DHT22;57519;51.494;-2.626;2022-10-16T07:59:06;8.92;94.32
70154;DHT22;57519;51.494;-2.626;2022-10-16T08:01:32;8.99;94.28
70154;DHT22;57519;51.494;-2.626;2022-10-16T08:03:57;9.07;94.15
70154;DHT22;57519;51.494;-2.626;2022-10-16T08:06:22;9.19;94.12
70154;DHT22;57519;51.494;-2.626;2022-10-16T08:08:48;9.32;94.28
70154;DHT22;57519;51.494;-2.626;2022-10-16T08:11:14;9.48;94.54
70154;DHT22;57519;51.494;-2.626;2022-10-16T08:13:41;9.58;94.64
70154;DHT22;57519;51.494;-2.626;2022-10-16T08:16:06;9.67;94.56
70154;DHT22;57519;51.494;-2.626;2022-10-16T08:18:37;9.67;94.42
70154;DHT22;57519;51.494;-2.626;2022-10-16T08:21:04;9.71;94.20
70154;DHT22;57519;51.494;-2.626;2022-10-16T08:23:30;9.84;94.20
70154;DHT22;57519;51.494;-2.626;2022-10-16T08:26:03;9.94;94.08
70154;DHT22;57519;51.494;-2.626;2022-10-16T08:28:28;10.06;93.88
70154;DHT22;57519;51.494;-2.626;2022-10-16T08:30:54;10.18;93.58
70154;DHT22;57519;51.494;-2.626;2022-10-16T08:33:21;10.22;93.34
70154;DHT22;57519;51.494;-2.626;2022-10-16T08:35:53;10.23;93.12
70154;DHT22;57519;51.494;-2.626;2022-10-16T08:38:20;10.22;92.90
70154;DHT22;57519;51.494;-2.626;2022-10-16T08:40:45;10.26;92.93
70154;DHT22;57519;51.494;-2.626;2022-10-16T08:48:45;10.46;91.97
70154;DHT22;57519;51.494;-2.626;2022-10-16T08:51:19;10.63;91.84
70154;DHT22;57519;51.494;-2.626;2022-10-16T08:53:52;10.77;91.45
70154;DHT22;57519;51.494;-2.626;2022-10-16T08:56:19;10.84;90.44
70154;DHT22;57519;51.494;-2.626;2022-10-16T08:58:46;10.93;90.27
70154;DHT22;57519;51.494;-2.626;2022-10-16T09:01:15;10.85;90.41
70154;DHT22;57519;51.494;-2.626;2022-10-16T09:03:53;11.01;90.36
70154;DHT22;57519;51.494;-2.626;2022-10-16T09:12:31;11.21;88.50
70154;DHT22;57519;51.494;-2.626;2022-10-16T09:15:35;11.21;89.00
70154;DHT22;57519;51.494;-2.626;2022-10-16T09:20:40;11.36;88.57
70154;DHT22;57519;51.494;-2.626;2022-10-16T09:23:13;11.54;88.20
70154;DHT22;57519;51.494;-2.626;2022-10-16T09:25:42;11.75;85.87
70154;DHT22;57519;51.494;-2.626;2022-10-16T09:28:08;11.73;87.12
70154;DHT22;57519;51.494;-2.626;2022-10-16T09:30:34;11.82;86.04
70154;DHT22;57519;51.494;-2.626;2022-10-16T09:33:00;12.05;86.12
70154;DHT22;57519;51.494;-2.626;2022-10-16T09:35:38;12.25;84.81
70154;DHT22;57519;51.494;-2.626;2022-10-16T09:38:05;12.32;85.34
70154;DHT22;57519;51.494;-2.626;2022-10-16T09:40:34;12.38;85.18
70154;DHT22;57519;51.494;-2.626;2022-10-16T09:46:19;12.44;85.28
70154;DHT22;57519;51.494;-2.626;2022-10-16T09:48:50;12.42;84.52
70154;DHT22;57519;51.494;-2.626;2022-10-16T09:51:23;12.48;83.75
70154;DHT22;57519;51.494;-2.626;2022-10-16T09:53:55;12.63;84.05
70154;DHT22;57519;51.494;-2.626;2022-10-16T09:56:29;12.92;82.27
70154;DHT22;57519;51.494;-2.626;2022-10-16T09:59:00;13.14;82.19
70154;DHT22;57519;51.494;-2.626;2022-10-16T10:01:40;13.26;82.24
70154;DHT22;57519;51.494;-2.626;2022-10-16T10:04:07;13.36;82.10
70154;DHT22;57519;51.494;-2.626;2022-10-16T10:06:35;13.40;81.83
70154;DHT22;57519;51.494;-2.626;2022-10-16T10:09:13;13.41;80.22
70154;DHT22;57519;51.494;-2.626;2022-10-16T10:11:48;13.38;79.84
70154;DHT22;57519;51.494;-2.626;2022-10-16T10:14:20;13.37;80.12
70154;DHT22;57519;51.494;-2.626;2022-10-16T10:16:47;13.34;81.48
70154;DHT22;57519;51.494;-2.626;2022-10-16T10:19:21;13.37;79.26
70154;DHT22;57519;51.494;-2.626;2022-10-16T10:21:47;13.38;80.40
70154;DHT22;57519;51.494;-2.626;2022-10-16T10:24:18;13.40;80.37
70154;DHT22;57519;51.494;-2.626;2022-10-16T10:27:03;13.44;79.93
70154;DHT22;57519;51.494;-2.626;2022-10-16T10:29:46;13.44;79.54
70154;DHT22;57519;51.494;-2.626;2022-10-16T10:32:26;13.30;80.29
70154;DHT22;57519;51.494;-2.626;2022-10-16T10:35:14;13.23;79.99
70154;DHT22;57519;51.494;-2.626;2022-10-16T10:38:05;13.31;79.58
70154;DHT22;57519;51.494;-2.626;2022-10-16T10:43:39;13.59;77.80
70154;DHT22;57519;51.494;-2.626;2022-10-16T10:46:12;13.54;77.59
70154;DHT22;57519;51.494;-2.626;2022-10-16T10:48:47;13.62;76.50
70154;DHT22;57519;51.494;-2.626;2022-10-16T10:51:32;13.64;77.82
70154;DHT22;57519;51.494;-2.626;2022-10-16T10:54:26;13.90;75.98
70154;DHT22;57519;51.494;-2.626;2022-10-16T10:57:06;13.98;75.71
70154;DHT22;57519;51.494;-2.626;2022-10-16T11:02:38;13.86;75.35
70154;DHT22;57519;51.494;-2.626;2022-10-16T11:05:40;13.99;74.87
70154;DHT22;57519;51.494;-2.626;2022-10-16T11:08:20;14.06;74.96
70154;DHT22;57519;51.494;-2.626;2022-10-16T11:10:53;14.10;73.46
70154;DHT22;57519;51.494;-2.626;2022-10-16T11:13:31;14.13;74.84
70154;DHT22;57519;51.494;-2.626;2022-10-16T11:16:00;14.08;73.71
70154;DHT22;57519;51.494;-2.626;2022-10-16T11:18:32;13.99;72.67
70154;DHT22;57519;51.494;-2.626;2022-10-16T11:21:13;13.96;74.32
70154;DHT22;57519;51.494;-2.626;2022-10-16T11:23:49;14.08;73.22
70154;DHT22;57519;51.494;-2.626;2022-10-16T11:26:20;14.23;72.45
70154;DHT22;57519;51.494;-2.626;2022-10-16T11:28:51;14.30;72.41
70154;DHT22;57519;51.494;-2.626;2022-10-16T11:31:41;14.27;72.74
70154;DHT22;57519;51.494;-2.626;2022-10-16T11:34:27;14.40;73.15
70154;DHT22;57519;51.494;-2.626;2022-10-16T11:37:09;14.41;71.71
70154;DHT22;57519;51.494;-2.626;2022-10-16T11:39:38;14.67;70.82
70154;DHT22;57519;51.494;-2.626;2022-10-16T11:42:22;14.64;69.25
70154;DHT22;57519;51.494;-2.626;2022-10-16T11:45:33;14.64;70.13
70154;DHT22;57519;51.494;-2.626;2022-10-16T11:48:32;14.74;69.08
70154;DHT22;57519;51.494;-2.626;2022-10-16T11:50:53;14.74;70.21
70154;DHT22;57519;51.494;-2.626;2022-10-16T11:56:16;15.06;68.62
70154;DHT22;57519;51.494;-2.626;2022-10-16T12:01:31;15.30;66.83
70154;DHT22;57519;51.494;-2.626;2022-10-16T12:04:51;15.29;68.86
70154;DHT22;57519;51.494;-2.626;2022-10-16T12:07:19;15.18;67.68
70154;DHT22;57519;51.494;-2.626;2022-10-16T12:09:46;15.15;66.68
70154;DHT22;57519;51.494;-2.626;2022-10-16T12:12:38;15.13;68.48
70154;DHT22;57519;51.494;-2.626;2022-10-16T12:15:23;15.42;66.89
70154;DHT22;57519;51.494;-2.626;2022-10-16T12:17:50;15.71;67.08
70154;DHT22;57519;51.494;-2.626;2022-10-16T12:22:48;16.14;65.75
70154;DHT22;57519;51.494;-2.626;2022-10-16T12:25:40;16.09;64.74
70154;DHT22;57519;51.494;-2.626;2022-10-16T12:30:41;15.90;65.09
70154;DHT22;57519;51.494;-2.626;2022-10-16T12:33:20;16.01;64.98
70154;DHT22;57519;51.494;-2.626;2022-10-16T12:35:46;16.19;65.66
70154;DHT22;57519;51.494;-2.626;2022-10-16T12:38:19;16.30;65.58
70154;DHT22;57519;51.494;-2.626;2022-10-16T12:41:04;16.22;63.91
70154;DHT22;57519;51.494;-2.626;2022-10-16T12:43:46;16.08;65.20
70154;DHT22;57519;51.494;-2.626;2022-10-16T12:48:41;16.05;64.78
70154;DHT22;57519;51.494;-2.626;2022-10-16T12:51:25;16.19;66.04
70154;DHT22;57519;51.494;-2.626;2022-10-16T12:54:03;16.52;64.93
70154;DHT22;57519;51.494;-2.626;2022-10-16T13:07:31;16.81;64.85
70154;DHT22;57519;51.494;-2.626;2022-10-16T13:10:21;16.70;64.39
70154;DHT22;57519;51.494;-2.626;2022-10-16T13:18:30;17.08;64.27
70154;DHT22;57519;51.494;-2.626;2022-10-16T13:21:19;16.90;64.94
70154;DHT22;57519;51.494;-2.626;2022-10-16T13:29:22;16.80;65.81
70154;DHT22;57519;51.494;-2.626;2022-10-16T13:31:47;16.74;64.24
70154;DHT22;57519;51.494;-2.626;2022-10-16T13:34:17;16.74;65.07
70154;DHT22;57519;51.494;-2.626;2022-10-16T13:36:46;16.67;64.60
70154;DHT22;57519;51.494;-2.626;2022-10-16T13:39:14;16.56;64.77
70154;DHT22;57519;51.494;-2.626;2022-10-16T13:41:42;16.52;65.34
70154;DHT22;57519;51.494;-2.626;2022-10-16T13:44:14;16.46;65.93
70154;DHT22;57519;51.494;-2.626;2022-10-16T13:46:41;16.49;64.10
70154;DHT22;57519;51.494;-2.626;2022-10-16T13:49:15;16.39;64.58
70154;DHT22;57519;51.494;-2.626;2022-10-16T13:51:41;16.45;64.59
70154;DHT22;57519;51.494;-2.626;2022-10-16T13:54:09;16.59;63.63
70154;DHT22;57519;51.494;-2.626;2022-10-16T13:56:38;16.59;63.71
70154;DHT22;57519;51.494;-2.626;2022-10-16T13:59:06;16.56;64.16
70154;DHT22;57519;51.494;-2.626;2022-10-16T14:01:42;16.57;63.79
70154;DHT22;57519;51.494;-2.626;2022-10-16T14:04:11;16.55;63.59
70154;DHT22;57519;51.494;-2.626;2022-10-16T14:06:41;16.48;64.69
70154;DHT22;57519;51.494;-2.626;2022-10-16T14:11:59;16.41;64.84
70154;DHT22;57519;51.494;-2.626;2022-10-16T14:14:29;16.32;65.12
70154;DHT22;57519;51.494;-2.626;2022-10-16T14:16:59;16.19;64.38
70154;DHT22;57519;51.494;-2.626;2022-10-16T14:19:29;16.05;64.16
70154;DHT22;57519;51.494;-2.626;2022-10-16T14:21:56;15.94;65.08
70154;DHT22;57519;51.494;-2.626;2022-10-16T14:24:41;15.98;64.81
70154;DHT22;57519;51.494;-2.626;2022-10-16T14:27:32;15.95;65.09
70154;DHT22;57519;51.494;-2.626;2022-10-16T14:32:33;15.94;66.33
70154;DHT22;57519;51.494;-2.626;2022-10-16T14:34:58;15.91;66.29
70154;DHT22;57519;51.494;-2.626;2022-10-16T14:37:29;16.01;65.61
70154;DHT22;57519;51.494;-2.626;2022-10-16T14:39:55;16.11;64.81
70154;DHT22;57519;51.494;-2.626;2022-10-16T14:42:23;16.22;65.40
70154;DHT22;57519;51.494;-2.626;2022-10-16T14:44:53;16.34;65.11
70154;DHT22;57519;51.494;-2.626;2022-10-16T14:47:21;16.26;64.17
70154;DHT22;57519;51.494;-2.626;2022-10-16T14:49:51;16.29;65.52
70154;DHT22;57519;51.494;-2.626;2022-10-16T14:52:16;16.23;64.98
70154;DHT22;57519;51.494;-2.626;2022-10-16T14:54:42;16.19;64.56
70154;DHT22;57519;51.494;-2.626;2022-10-16T14:57:25;16.29;65.14
70154;DHT22;57519;51.494;-2.626;2022-10-16T14:59:52;16.34;64.87
70154;DHT22;57519;51.494;-2.626;2022-10-16T15:04:46;16.30;65.05
70154;DHT22;57519;51.494;-2.626;2022-10-16T15:07:12;16.33;65.04
70154;DHT22;57519;51.494;-2.626;2022-10-16T15:09:37;16.28;66.45
70154;DHT22;57519;51.494;-2.626;2022-10-16T15:12:04;16.25;65.21
70154;DHT22;57519;51.494;-2.626;2022-10-16T15:14:30;16.32;64.99
70154;DHT22;57519;51.494;-2.626;2022-10-16T15:16:55;16.25;65.88
70154;DHT22;57519;51.494;-2.626;2022-10-16T15:19:21;16.11;66.50
70154;DHT22;57519;51.494;-2.626;2022-10-16T15:21:47;16.02;66.65
70154;DHT22;57519;51.494;-2.626;2022-10-16T15:24:13;15.95;67.01
70154;DHT22;57519;51.494;-2.626;2022-10-16T15:26:39;15.98;67.42
70154;DHT22;57519;51.494;-2.626;2022-10-16T15:29:05;15.97;67.49
70154;DHT22;57519;51.494;-2.626;2022-10-16T15:31:31;15.98;67.12
70154;DHT22;57519;51.494;-2.626;2022-10-16T15:33:57;15.98;67.16
70154;DHT22;57519;51.494;-2.626;2022-10-16T15:36:32;15.93;67.79
70154;DHT22;57519;51.494;-2.626;2022-10-16T15:39:13;15.85;68.09
70154;DHT22;57519;51.494;-2.626;2022-10-16T15:41:39;15.85;68.16
70154;DHT22;57519;51.494;-2.626;2022-10-16T15:44:05;15.81;67.86
70154;DHT22;57519;51.494;-2.626;2022-10-16T15:46:30;15.88;67.98
70154;DHT22;57519;51.494;-2.626;2022-10-16T15:48:57;15.87;67.91
70154;DHT22;57519;51.494;-2.626;2022-10-16T15:51:23;15.80;68.35
70154;DHT22;57519;51.494;-2.626;2022-10-16T15:53:49;15.77;68.46
70154;DHT22;57519;51.494;-2.626;2022-10-16T15:56:16;15.77;68.66
70154;DHT22;57519;51.494;-2.626;2022-10-16T15:58:42;15.81;68.62
70154;DHT22;57519;51.494;-2.626;2022-10-16T16:01:08;15.64;69.65
70154;DHT22;57519;51.494;-2.626;2022-10-16T16:03:37;15.70;69.35
70154;DHT22;57519;51.494;-2.626;2022-10-16T16:06:06;15.68;69.76
70154;DHT22;57519;51.494;-2.626;2022-10-16T16:08:33;15.57;69.70
70154;DHT22;57519;51.494;-2.626;2022-10-16T16:11:04;15.57;70.50
70154;DHT22;57519;51.494;-2.626;2022-10-16T16:13:30;15.56;69.96
70154;DHT22;57519;51.494;-2.626;2022-10-16T16:15:56;15.50;70.17
70154;DHT22;57519;51.494;-2.626;2022-10-16T16:18:21;15.51;70.19
70154;DHT22;57519;51.494;-2.626;2022-10-16T16:20:47;15.40;71.17
70154;DHT22;57519;51.494;-2.626;2022-10-16T16:23:13;15.44;70.89
70154;DHT22;57519;51.494;-2.626;2022-10-16T16:25:38;15.50;71.04
70154;DHT22;57519;51.494;-2.626;2022-10-16T16:28:04;15.49;70.92
70154;DHT22;57519;51.494;-2.626;2022-10-16T16:30:29;15.47;71.36
70154;DHT22;57519;51.494;-2.626;2022-10-16T16:32:55;15.42;71.74
70154;DHT22;57519;51.494;-2.626;2022-10-16T16:35:20;15.42;72.21
70154;DHT22;57519;51.494;-2.626;2022-10-16T16:37:47;15.39;72.58
70154;DHT22;57519;51.494;-2.626;2022-10-16T16:40:12;15.36;72.83
70154;DHT22;57519;51.494;-2.626;2022-10-16T16:42:38;15.36;73.25
70154;DHT22;57519;51.494;-2.626;2022-10-16T16:45:04;15.30;73.74
70154;DHT22;57519;51.494;-2.626;2022-10-16T16:47:29;15.32;73.84
70154;DHT22;57519;51.494;-2.626;2022-10-16T16:49:54;15.27;74.26
70154;DHT22;57519;51.494;-2.626;2022-10-16T16:52:20;15.23;74.60
70154;DHT22;57519;51.494;-2.626;2022-10-16T16:54:47;15.16;75.06
70154;DHT22;57519;51.494;-2.626;2022-10-16T16:57:17;15.18;75.95
70154;DHT22;57519;51.494;-2.626;2022-10-16T16:59:43;15.06;76.86